Terminal Aerodrome Forecast
Issued by NWS Billings, MT

Home | Current Version | Previous Version | Text Only | Print | Product List | Glossary Off
Versions: 1 2 3 4 5 6 7 8 9 10 11 12 13 14 15 16 17 18 19 20 21 22 23 24 25 26 27 28 29 30

467
FTUS45 KBYZ 240330 AAA
TAFMLS
TAF AMD
KMLS 240330Z 2404/2424 32010KT P6SM VCSH SCT070 BKN100
     FM240600 VRB06KT P6SM FEW070 BKN150
     FM241600 01010KT P6SM FEW090 SCT150=

USA.gov is the U.S. government's official web portal to all federal, state and local government web resources and services.